sensor_id;sensor_type;location;lat;lon;timestamp;temperature;humidity
45319;DHT22;31057;48.498;32.260;2023-03-01T00:01:10;-2.00;99.90
45319;DHT22;31057;48.498;32.260;2023-03-01T00:03:13;-2.20;99.90
45319;DHT22;31057;48.498;32.260;2023-03-01T00:05:14;-2.10;99.90
45319;DHT22;31057;48.498;32.260;2023-03-01T00:07:17;-2.10;99.90
45319;DHT22;31057;48.498;32.260;2023-03-01T00:09:19;-2.10;99.90
45319;DHT22;31057;48.498;32.260;2023-03-01T00:11:25;-2.10;99.90
45319;DHT22;31057;48.498;32.260;2023-03-01T00:13:27;-2.10;99.90
45319;DHT22;31057;48.498;32.260;2023-03-01T00:15:29;-2.10;99.90
45319;DHT22;31057;48.498;32.260;2023-03-01T00:17:31;-2.10;99.90
45319;DHT22;31057;48.498;32.260;2023-03-01T00:19:33;-2.10;99.90
45319;DHT22;31057;48.498;32.260;2023-03-01T00:21:35;-2.10;99.90
45319;DHT22;31057;48.498;32.260;2023-03-01T00:23:37;-2.20;99.90
45319;DHT22;31057;48.498;32.260;2023-03-01T00:25:42;-2.30;99.90
45319;DHT22;31057;48.498;32.260;2023-03-01T00:27:44;-2.20;99.90
45319;DHT22;31057;48.498;32.260;2023-03-01T00:29:47;-2.20;99.90
45319;DHT22;31057;48.498;32.260;2023-03-01T00:31:49;-2.20;99.90
45319;DHT22;31057;48.498;32.260;2023-03-01T00:33:55;-2.30;99.90
45319;DHT22;31057;48.498;32.260;2023-03-01T00:35:58;-2.30;99.90
45319;DHT22;31057;48.498;32.260;2023-03-01T00:38:00;-2.20;99.90
45319;DHT22;31057;48.498;32.260;2023-03-01T00:40:02;-2.30;99.90
45319;DHT22;31057;48.498;32.260;2023-03-01T00:42:07;-2.30;99.90
45319;DHT22;31057;48.498;32.260;2023-03-01T00:44:09;-2.30;99.90
45319;DHT22;31057;48.498;32.260;2023-03-01T00:46:15;-2.40;99.90
45319;DHT22;31057;48.498;32.260;2023-03-01T00:48:17;-2.40;99.90
45319;DHT22;31057;48.498;32.260;2023-03-01T00:50:19;-2.50;99.90
45319;DHT22;31057;48.498;32.260;2023-03-01T00:52:21;-2.40;99.90
45319;DHT22;31057;48.498;32.260;2023-03-01T00:54:23;-2.50;99.90
45319;DHT22;31057;48.498;32.260;2023-03-01T00:56:25;-2.40;99.90
45319;DHT22;31057;48.498;32.260;2023-03-01T00:58:27;-2.50;99.90
45319;DHT22;31057;48.498;32.260;2023-03-01T01:00:28;-2.40;99.90
45319;DHT22;31057;48.498;32.260;2023-03-01T01:02:31;-2.40;99.90
45319;DHT22;31057;48.498;32.260;2023-03-01T01:04:33;-2.40;99.90
45319;DHT22;31057;48.498;32.260;2023-03-01T01:06:36;-2.50;99.90
45319;DHT22;31057;48.498;32.260;2023-03-01T01:08:38;-2.50;99.90
45319;DHT22;31057;48.498;32.260;2023-03-01T01:10:40;-2.50;99.90
45319;DHT22;31057;48.498;32.260;2023-03-01T01:12:42;-2.40;99.90
45319;DHT22;31057;48.498;32.260;2023-03-01T01:14:44;-2.40;99.90
45319;DHT22;31057;48.498;32.260;2023-03-01T01:16:46;-2.40;99.90
45319;DHT22;31057;48.498;32.260;2023-03-01T01:18:47;-2.40;99.90
45319;DHT22;31057;48.498;32.260;2023-03-01T01:20:49;-2.50;99.90
45319;DHT22;31057;48.498;32.260;2023-03-01T01:22:51;-2.50;99.90
45319;DHT22;31057;48.498;32.260;2023-03-01T01:24:53;-2.60;99.90
45319;DHT22;31057;48.498;32.260;2023-03-01T01:26:55;-2.70;99.90
45319;DHT22;31057;48.498;32.260;2023-03-01T01:28:57;-2.70;99.90
45319;DHT22;31057;48.498;32.260;2023-03-01T01:30:59;-2.70;99.90
45319;DHT22;31057;48.498;32.260;2023-03-01T01:33:01;-2.70;99.90
45319;DHT22;31057;48.498;32.260;2023-03-01T01:35:04;-2.70;99.90
45319;DHT22;31057;48.498;32.260;2023-03-01T01:37:06;-2.80;99.90
45319;DHT22;31057;48.498;32.260;2023-03-01T01:39:09;-2.70;99.90
45319;DHT22;31057;48.498;32.260;2023-03-01T01:41:14;-2.80;99.90
45319;DHT22;31057;48.498;32.260;2023-03-01T01:43:21;-2.80;99.90
45319;DHT22;31057;48.498;32.260;2023-03-01T01:47:31;-2.80;99.90
45319;DHT22;31057;48.498;32.260;2023-03-01T01:49:37;-2.70;99.90
45319;DHT22;31057;48.498;32.260;2023-03-01T01:51:40;-2.90;99.90
45319;DHT22;31057;48.498;32.260;2023-03-01T01:53:44;-2.80;99.90
45319;DHT22;31057;48.498;32.260;2023-03-01T01:55:47;-2.80;99.90
45319;DHT22;31057;48.498;32.260;2023-03-01T01:57:54;-2.70;99.90
45319;DHT22;31057;48.498;32.260;2023-03-01T01:59:58;-2.70;99.90
45319;DHT22;31057;48.498;32.260;2023-03-01T02:02:00;-2.60;99.90
45319;DHT22;31057;48.498;32.260;2023-03-01T02:04:03;-2.70;99.90
45319;DHT22;31057;48.498;32.260;2023-03-01T02:08:19;-2.60;99.90
45319;DHT22;31057;48.498;32.260;2023-03-01T02:10:22;-2.60;99.90
45319;DHT22;31057;48.498;32.260;2023-03-01T02:12:24;-2.60;99.90
45319;DHT22;31057;48.498;32.260;2023-03-01T02:14:27;-2.60;99.90
45319;DHT22;31057;48.498;32.260;2023-03-01T02:16:29;-2.70;99.90
45319;DHT22;31057;48.498;32.260;2023-03-01T02:18:32;-2.70;99.90
45319;DHT22;31057;48.498;32.260;2023-03-01T02:20:44;-2.60;99.90
45319;DHT22;31057;48.498;32.260;2023-03-01T02:22:49;-2.70;99.90
45319;DHT22;31057;48.498;32.260;2023-03-01T02:27:02;-2.80;99.90
45319;DHT22;31057;48.498;32.260;2023-03-01T02:29:04;-2.70;99.90
45319;DHT22;31057;48.498;32.260;2023-03-01T02:31:08;-2.80;99.90
45319;DHT22;31057;48.498;32.260;2023-03-01T02:33:29;-2.80;99.90
45319;DHT22;31057;48.498;32.260;2023-03-01T02:35:35;-2.80;99.90
45319;DHT22;31057;48.498;32.260;2023-03-01T02:37:39;-2.80;99.90
45319;DHT22;31057;48.498;32.260;2023-03-01T02:39:42;-2.80;99.90
45319;DHT22;31057;48.498;32.260;2023-03-01T02:41:46;-2.90;99.90
45319;DHT22;31057;48.498;32.260;2023-03-01T02:43:49;-2.90;99.90
45319;DHT22;31057;48.498;32.260;2023-03-01T02:45:52;-3.00;99.90
45319;DHT22;31057;48.498;32.260;2023-03-01T02:47:55;-2.90;99.90
45319;DHT22;31057;48.498;32.260;2023-03-01T02:49:57;-2.90;99.90
45319;DHT22;31057;48.498;32.260;2023-03-01T02:56:21;-3.00;99.90
45319;DHT22;31057;48.498;32.260;2023-03-01T02:58:23;-3.00;99.90
45319;DHT22;31057;48.498;32.260;2023-03-01T03:00:26;-3.10;99.90
45319;DHT22;31057;48.498;32.260;2023-03-01T03:02:30;-3.00;99.90
45319;DHT22;31057;48.498;32.260;2023-03-01T03:04:37;-3.00;99.90
45319;DHT22;31057;48.498;32.260;2023-03-01T03:06:39;-3.00;99.90
45319;DHT22;31057;48.498;32.260;2023-03-01T03:08:41;-3.00;99.90
45319;DHT22;31057;48.498;32.260;2023-03-01T03:10:43;-3.00;99.90
45319;DHT22;31057;48.498;32.260;2023-03-01T03:12:48;-3.10;99.90
45319;DHT22;31057;48.498;32.260;2023-03-01T03:14:50;-3.00;99.90
45319;DHT22;31057;48.498;32.260;2023-03-01T03:16:52;-3.10;99.90
45319;DHT22;31057;48.498;32.260;2023-03-01T03:18:55;-3.10;99.90
45319;DHT22;31057;48.498;32.260;2023-03-01T03:21:10;-3.00;99.90
45319;DHT22;31057;48.498;32.260;2023-03-01T03:23:12;-3.20;99.90
45319;DHT22;31057;48.498;32.260;2023-03-01T03:25:14;-3.10;99.90
45319;DHT22;31057;48.498;32.260;2023-03-01T03:27:16;-3.20;99.90
45319;DHT22;31057;48.498;32.260;2023-03-01T03:29:18;-3.50;99.90
45319;DHT22;31057;48.498;32.260;2023-03-01T03:31:20;-3.40;99.90
45319;DHT22;31057;48.498;32.260;2023-03-01T03:33:22;-3.50;99.90
45319;DHT22;31057;48.498;32.260;2023-03-01T03:35:28;-3.50;99.90
45319;DHT22;31057;48.498;32.260;2023-03-01T03:37:31;-3.60;99.90
45319;DHT22;31057;48.498;32.260;2023-03-01T03:39:52;-3.70;99.90
45319;DHT22;31057;48.498;32.260;2023-03-01T03:41:56;-3.80;99.90
45319;DHT22;31057;48.498;32.260;2023-03-01T03:43:58;-3.70;99.90
45319;DHT22;31057;48.498;32.260;2023-03-01T03:45:59;-3.60;99.90
45319;DHT22;31057;48.498;32.260;2023-03-01T03:48:02;-3.60;99.90
45319;DHT22;31057;48.498;32.260;2023-03-01T03:50:05;-3.50;99.90
45319;DHT22;31057;48.498;32.260;2023-03-01T03:52:06;-3.50;99.90
45319;DHT22;31057;48.498;32.260;2023-03-01T03:54:14;-3.50;99.90
45319;DHT22;31057;48.498;32.260;2023-03-01T03:56:16;-3.50;99.90
45319;DHT22;31057;48.498;32.260;2023-03-01T03:58:19;-3.40;99.90
45319;DHT22;31057;48.498;32.260;2023-03-01T04:00:21;-3.50;99.90
45319;DHT22;31057;48.498;32.260;2023-03-01T04:02:25;-3.50;99.90
45319;DHT22;31057;48.498;32.260;2023-03-01T04:04:27;-3.50;99.90
45319;DHT22;31057;48.498;32.260;2023-03-01T04:06:29;-3.50;99.90
45319;DHT22;31057;48.498;32.260;2023-03-01T04:08:31;-3.50;99.90
45319;DHT22;31057;48.498;32.260;2023-03-01T04:10:37;-3.50;99.90
45319;DHT22;31057;48.498;32.260;2023-03-01T04:12:39;-3.50;99.90
45319;DHT22;31057;48.498;32.260;2023-03-01T04:14:41;-3.40;99.90
45319;DHT22;31057;48.498;32.260;2023-03-01T04:16:43;-3.40;99.90
45319;DHT22;31057;48.498;32.260;2023-03-01T04:18:45;-3.50;99.90
45319;DHT22;31057;48.498;32.260;2023-03-01T04:20:47;-3.50;99.90
45319;DHT22;31057;48.498;32.260;2023-03-01T04:22:48;-3.60;99.90
45319;DHT22;31057;48.498;32.260;2023-03-01T04:24:50;-3.60;99.90
45319;DHT22;31057;48.498;32.260;2023-03-01T04:26:52;-3.50;99.90
45319;DHT22;31057;48.498;32.260;2023-03-01T04:28:54;-3.70;99.90
45319;DHT22;31057;48.498;32.260;2023-03-01T04:30:56;-3.80;99.90
45319;DHT22;31057;48.498;32.260;2023-03-01T04:32:58;-4.00;99.90
45319;DHT22;31057;48.498;32.260;2023-03-01T04:35:00;-3.90;99.90
45319;DHT22;31057;48.498;32.260;2023-03-01T04:37:02;-3.90;99.90
45319;DHT22;31057;48.498;32.260;2023-03-01T04:39:04;-3.90;99.90
45319;DHT22;31057;48.498;32.260;2023-03-01T04:41:14;-4.00;99.90
45319;DHT22;31057;48.498;32.260;2023-03-01T04:43:16;-3.90;99.90
45319;DHT22;31057;48.498;32.260;2023-03-01T04:45:19;-3.90;99.90
45319;DHT22;31057;48.498;32.260;2023-03-01T04:47:20;-3.90;99.90
45319;DHT22;31057;48.498;32.260;2023-03-01T04:49:22;-4.00;99.90
45319;DHT22;31057;48.498;32.260;2023-03-01T04:51:24;-3.90;99.90
45319;DHT22;31057;48.498;32.260;2023-03-01T04:53:26;-4.00;99.90
45319;DHT22;31057;48.498;32.260;2023-03-01T04:55:28;-4.00;99.90
45319;DHT22;31057;48.498;32.260;2023-03-01T04:57:30;-4.00;99.90
45319;DHT22;31057;48.498;32.260;2023-03-01T04:59:32;-4.00;99.90
45319;DHT22;31057;48.498;32.260;2023-03-01T05:01:34;-4.00;99.90
45319;DHT22;31057;48.498;32.260;2023-03-01T05:03:36;-3.80;99.90
45319;DHT22;31057;48.498;32.260;2023-03-01T05:05:38;-3.70;99.90
45319;DHT22;31057;48.498;32.260;2023-03-01T05:07:40;-3.80;99.90
45319;DHT22;31057;48.498;32.260;2023-03-01T05:09:42;-3.90;99.90
45319;DHT22;31057;48.498;32.260;2023-03-01T05:11:44;-3.90;99.90
45319;DHT22;31057;48.498;32.260;2023-03-01T05:13:46;-3.90;99.90
45319;DHT22;31057;48.498;32.260;2023-03-01T05:15:48;-3.90;99.90
45319;DHT22;31057;48.498;32.260;2023-03-01T05:17:51;-3.90;99.90
45319;DHT22;31057;48.498;32.260;2023-03-01T05:19:53;-3.80;99.90
45319;DHT22;31057;48.498;32.260;2023-03-01T05:21:59;-3.80;99.90
45319;DHT22;31057;48.498;32.260;2023-03-01T05:24:05;-3.80;99.90
45319;DHT22;31057;48.498;32.260;2023-03-01T05:26:11;-3.60;99.90
45319;DHT22;31057;48.498;32.260;2023-03-01T05:28:29;-3.70;99.90
45319;DHT22;31057;48.498;32.260;2023-03-01T05:30:31;-3.60;99.90
45319;DHT22;31057;48.498;32.260;2023-03-01T05:32:34;-3.60;99.90
45319;DHT22;31057;48.498;32.260;2023-03-01T05:34:35;-3.60;99.90
45319;DHT22;31057;48.498;32.260;2023-03-01T05:36:37;-3.60;99.90
45319;DHT22;31057;48.498;32.260;2023-03-01T05:38:39;-3.60;99.90
45319;DHT22;31057;48.498;32.260;2023-03-01T05:40:42;-3.60;99.90
45319;DHT22;31057;48.498;32.260;2023-03-01T05:42:45;-3.50;99.90
45319;DHT22;31057;48.498;32.260;2023-03-01T05:44:47;-3.40;99.90
45319;DHT22;31057;48.498;32.260;2023-03-01T05:46:49;-3.30;99.90
45319;DHT22;31057;48.498;32.260;2023-03-01T05:48:51;-3.30;99.90
45319;DHT22;31057;48.498;32.260;2023-03-01T05:50:53;-3.30;99.90
45319;DHT22;31057;48.498;32.260;2023-03-01T05:52:59;-3.20;99.90
45319;DHT22;31057;48.498;32.260;2023-03-01T05:55:01;-3.10;99.90
45319;DHT22;31057;48.498;32.260;2023-03-01T05:57:03;-3.00;99.90
45319;DHT22;31057;48.498;32.260;2023-03-01T05:59:05;-2.90;99.90
45319;DHT22;31057;48.498;32.260;2023-03-01T06:01:10;-2.80;99.90
45319;DHT22;31057;48.498;32.260;2023-03-01T06:03:13;-2.70;99.90
45319;DHT22;31057;48.498;32.260;2023-03-01T06:05:15;-2.70;99.90
45319;DHT22;31057;48.498;32.260;2023-03-01T06:07:17;-2.60;99.90
45319;DHT22;31057;48.498;32.260;2023-03-01T06:09:19;-2.50;99.90
45319;DHT22;31057;48.498;32.260;2023-03-01T06:11:21;-2.50;99.90
45319;DHT22;31057;48.498;32.260;2023-03-01T06:13:23;-2.40;99.90
45319;DHT22;31057;48.498;32.260;2023-03-01T06:15:25;-2.30;99.90
45319;DHT22;31057;48.498;32.260;2023-03-01T06:17:31;-2.30;99.90
45319;DHT22;31057;48.498;32.260;2023-03-01T06:19:33;-2.20;99.90
45319;DHT22;31057;48.498;32.260;2023-03-01T06:21:35;-2.10;99.90
45319;DHT22;31057;48.498;32.260;2023-03-01T06:23:36;-2.00;99.90
45319;DHT22;31057;48.498;32.260;2023-03-01T06:25:38;-2.00;99.90
45319;DHT22;31057;48.498;32.260;2023-03-01T06:27:40;-1.80;99.90
45319;DHT22;31057;48.498;32.260;2023-03-01T06:29:42;-1.70;99.90
45319;DHT22;31057;48.498;32.260;2023-03-01T06:31:44;-1.70;99.90
45319;DHT22;31057;48.498;32.260;2023-03-01T06:33:47;-1.70;99.90
45319;DHT22;31057;48.498;32.260;2023-03-01T06:35:49;-1.50;99.90
45319;DHT22;31057;48.498;32.260;2023-03-01T06:37:51;-1.40;99.90
45319;DHT22;31057;48.498;32.260;2023-03-01T06:39:52;-1.30;99.90
45319;DHT22;31057;48.498;32.260;2023-03-01T06:41:54;-1.30;99.90
45319;DHT22;31057;48.498;32.260;2023-03-01T06:43:56;-1.20;99.90
45319;DHT22;31057;48.498;32.260;2023-03-01T06:45:58;-1.10;99.90
45319;DHT22;31057;48.498;32.260;2023-03-01T06:48:06;-1.10;99.90
45319;DHT22;31057;48.498;32.260;2023-03-01T06:50:08;-1.00;99.90
45319;DHT22;31057;48.498;32.260;2023-03-01T06:52:11;-1.00;99.90
45319;DHT22;31057;48.498;32.260;2023-03-01T06:54:12;-0.80;99.90
45319;DHT22;31057;48.498;32.260;2023-03-01T06:56:14;-0.70;99.90
45319;DHT22;31057;48.498;32.260;2023-03-01T06:58:16;-0.70;99.90
45319;DHT22;31057;48.498;32.260;2023-03-01T07:00:18;-0.70;99.90
45319;DHT22;31057;48.498;32.260;2023-03-01T07:02:20;-0.60;99.90
45319;DHT22;31057;48.498;32.260;2023-03-01T07:04:22;-0.60;99.90
45319;DHT22;31057;48.498;32.260;2023-03-01T07:06:24;-0.60;99.90
45319;DHT22;31057;48.498;32.260;2023-03-01T07:08:26;-0.50;99.90
45319;DHT22;31057;48.498;32.260;2023-03-01T07:10:28;-0.40;99.90
45319;DHT22;31057;48.498;32.260;2023-03-01T07:12:30;-0.50;99.90
45319;DHT22;31057;48.498;32.260;2023-03-01T07:14:31;-0.50;99.90
45319;DHT22;31057;48.498;32.260;2023-03-01T07:16:33;-0.40;99.90
45319;DHT22;31057;48.498;32.260;2023-03-01T07:18:36;-0.30;99.90
45319;DHT22;31057;48.498;32.260;2023-03-01T07:20:37;-0.20;99.90
45319;DHT22;31057;48.498;32.260;2023-03-01T07:22:40;0.00;99.90
45319;DHT22;31057;48.498;32.260;2023-03-01T07:24:43;0.00;99.90
45319;DHT22;31057;48.498;32.260;2023-03-01T07:26:48;-0.10;99.90
45319;DHT22;31057;48.498;32.260;2023-03-01T07:28:49;-0.10;99.90
45319;DHT22;31057;48.498;32.260;2023-03-01T07:30:51;-0.30;99.90
45319;DHT22;31057;48.498;32.260;2023-03-01T07:32:53;-0.10;99.90
45319;DHT22;31057;48.498;32.260;2023-03-01T07:34:56;0.00;99.90
45319;DHT22;31057;48.498;32.260;2023-03-01T07:36:58;0.00;99.90
45319;DHT22;31057;48.498;32.260;2023-03-01T07:39:00;0.00;99.90
45319;DHT22;31057;48.498;32.260;2023-03-01T07:41:03;-0.10;99.90
45319;DHT22;31057;48.498;32.260;2023-03-01T07:43:07;0.10;99.90
45319;DHT22;31057;48.498;32.260;2023-03-01T07:45:09;0.00;99.90
45319;DHT22;31057;48.498;32.260;2023-03-01T07:47:11;0.10;99.90
45319;DHT22;31057;48.498;32.260;2023-03-01T07:49:13;0.30;99.90
45319;DHT22;31057;48.498;32.260;2023-03-01T07:51:14;0.60;99.90
45319;DHT22;31057;48.498;32.260;2023-03-01T07:53:16;0.60;99.90
45319;DHT22;31057;48.498;32.260;2023-03-01T07:55:18;0.70;99.90
45319;DHT22;31057;48.498;32.260;2023-03-01T07:57:21;0.50;99.90
45319;DHT22;31057;48.498;32.260;2023-03-01T07:59:23;0.60;99.90
45319;DHT22;31057;48.498;32.260;2023-03-01T08:01:30;0.40;99.90
45319;DHT22;31057;48.498;32.260;2023-03-01T08:03:32;0.40;99.90
45319;DHT22;31057;48.498;32.260;2023-03-01T08:05:34;0.30;99.90
45319;DHT22;31057;48.498;32.260;2023-03-01T08:07:36;0.50;99.90
45319;DHT22;31057;48.498;32.260;2023-03-01T08:09:37;0.60;99.90
45319;DHT22;31057;48.498;32.260;2023-03-01T08:11:39;0.70;99.90
45319;DHT22;31057;48.498;32.260;2023-03-01T08:13:41;1.00;99.90
45319;DHT22;31057;48.498;32.260;2023-03-01T08:15:44;0.90;99.90
45319;DHT22;31057;48.498;32.260;2023-03-01T08:17:47;0.90;99.90
45319;DHT22;31057;48.498;32.260;2023-03-01T08:19:51;1.00;99.90
45319;DHT22;31057;48.498;32.260;2023-03-01T08:21:53;1.30;99.90
45319;DHT22;31057;48.498;32.260;2023-03-01T08:23:55;1.10;99.90
45319;DHT22;31057;48.498;32.260;2023-03-01T08:26:06;1.00;99.90
45319;DHT22;31057;48.498;32.260;2023-03-01T08:28:07;1.30;99.90
45319;DHT22;31057;48.498;32.260;2023-03-01T08:30:09;1.50;99.90
45319;DHT22;31057;48.498;32.260;2023-03-01T08:32:11;1.30;99.90
45319;DHT22;31057;48.498;32.260;2023-03-01T08:34:14;1.40;99.90
45319;DHT22;31057;48.498;32.260;2023-03-01T08:36:16;1.30;99.90
45319;DHT22;31057;48.498;32.260;2023-03-01T08:38:18;1.20;99.90
45319;DHT22;31057;48.498;32.260;2023-03-01T08:40:20;1.40;99.90
45319;DHT22;31057;48.498;32.260;2023-03-01T08:42:22;1.70;99.90
45319;DHT22;31057;48.498;32.260;2023-03-01T08:44:25;1.80;99.90
45319;DHT22;31057;48.498;32.260;2023-03-01T08:46:34;1.70;99.90
45319;DHT22;31057;48.498;32.260;2023-03-01T08:48:36;1.60;99.90
45319;DHT22;31057;48.498;32.260;2023-03-01T08:50:37;1.70;99.90
45319;DHT22;31057;48.498;32.260;2023-03-01T08:52:42;1.60;99.90
45319;DHT22;31057;48.498;32.260;2023-03-01T08:54:44;1.70;99.90
45319;DHT22;31057;48.498;32.260;2023-03-01T08:56:46;2.10;99.90
45319;DHT22;31057;48.498;32.260;2023-03-01T08:58:48;1.80;99.90
45319;DHT22;31057;48.498;32.260;2023-03-01T09:00:50;1.70;99.90
45319;DHT22;31057;48.498;32.260;2023-03-01T09:02:52;1.70;99.90
45319;DHT22;31057;48.498;32.260;2023-03-01T09:04:57;1.80;99.90
45319;DHT22;31057;48.498;32.260;2023-03-01T09:07:10;2.00;99.90
45319;DHT22;31057;48.498;32.260;2023-03-01T09:09:13;2.30;99.90
45319;DHT22;31057;48.498;32.260;2023-03-01T09:11:17;2.00;99.90
45319;DHT22;31057;48.498;32.260;2023-03-01T09:13:19;2.00;99.90
45319;DHT22;31057;48.498;32.260;2023-03-01T09:15:21;2.40;99.90
45319;DHT22;31057;48.498;32.260;2023-03-01T09:17:23;2.60;99.90
45319;DHT22;31057;48.498;32.260;2023-03-01T09:19:25;2.00;99.90
45319;DHT22;31057;48.498;32.260;2023-03-01T09:21:28;2.00;99.90
45319;DHT22;31057;48.498;32.260;2023-03-01T09:23:45;2.10;99.90
45319;DHT22;31057;48.498;32.260;2023-03-01T09:25:47;2.10;99.90
45319;DHT22;31057;48.498;32.260;2023-03-01T09:33:51;2.60;99.90
45319;DHT22;31057;48.498;32.260;2023-03-01T09:36:00;2.40;99.90
45319;DHT22;31057;48.498;32.260;2023-03-01T09:38:02;2.40;99.90
45319;DHT22;31057;48.498;32.260;2023-03-01T09:40:05;2.50;99.90
45319;DHT22;31057;48.498;32.260;2023-03-01T09:42:11;2.60;99.90
45319;DHT22;31057;48.498;32.260;2023-03-01T09:46:40;2.70;99.90
45319;DHT22;31057;48.498;32.260;2023-03-01T09:48:44;2.60;99.90
45319;DHT22;31057;48.498;32.260;2023-03-01T09:50:49;2.60;99.90
45319;DHT22;31057;48.498;32.260;2023-03-01T09:53:11;2.70;99.90
45319;DHT22;31057;48.498;32.260;2023-03-01T09:55:16;2.90;99.90
45319;DHT22;31057;48.498;32.260;2023-03-01T09:57:30;2.70;99.90
45319;DHT22;31057;48.498;32.260;2023-03-01T09:59:41;2.70;99.90
45319;DHT22;31057;48.498;32.260;2023-03-01T10:01:49;2.60;99.90
45319;DHT22;31057;48.498;32.260;2023-03-01T10:06:00;3.30;99.90
45319;DHT22;31057;48.498;32.260;2023-03-01T10:10:26;2.70;99.90
45319;DHT22;31057;48.498;32.260;2023-03-01T10:18:59;2.50;99.90
45319;DHT22;31057;48.498;32.260;2023-03-01T10:27:56;2.60;99.90
45319;DHT22;31057;48.498;32.260;2023-03-01T10:50:21;3.20;99.90
45319;DHT22;31057;48.498;32.260;2023-03-01T10:53:03;3.70;99.90
45319;DHT22;31057;48.498;32.260;2023-03-01T11:06:21;3.20;99.90
45319;DHT22;31057;48.498;32.260;2023-03-01T11:08:33;3.40;99.90
45319;DHT22;31057;48.498;32.260;2023-03-01T11:10:36;3.40;99.90
45319;DHT22;31057;48.498;32.260;2023-03-01T11:12:38;3.60;99.90
45319;DHT22;31057;48.498;32.260;2023-03-01T11:14:45;3.70;99.90
45319;DHT22;31057;48.498;32.260;2023-03-01T11:16:48;3.60;99.90
45319;DHT22;31057;48.498;32.260;2023-03-01T11:19:14;3.90;99.90
45319;DHT22;31057;48.498;32.260;2023-03-01T11:21:18;3.80;99.90
45319;DHT22;31057;48.498;32.260;2023-03-01T11:23:21;3.80;99.90
45319;DHT22;31057;48.498;32.260;2023-03-01T11:25:55;3.80;99.90
45319;DHT22;31057;48.498;32.260;2023-03-01T11:27:57;3.70;99.90
45319;DHT22;31057;48.498;32.260;2023-03-01T11:32:11;4.20;99.90
45319;DHT22;31057;48.498;32.260;2023-03-01T11:34:16;4.10;99.90
45319;DHT22;31057;48.498;32.260;2023-03-01T11:38:29;3.90;99.90
45319;DHT22;31057;48.498;32.260;2023-03-01T11:40:33;3.90;99.90
45319;DHT22;31057;48.498;32.260;2023-03-01T11:45:06;4.20;99.90
45319;DHT22;31057;48.498;32.260;2023-03-01T11:49:36;4.00;99.90
45319;DHT22;31057;48.498;32.260;2023-03-01T11:51:46;4.20;99.90
45319;DHT22;31057;48.498;32.260;2023-03-01T11:58:24;4.10;99.90
45319;DHT22;31057;48.498;32.260;2023-03-01T12:18:48;4.50;99.90
45319;DHT22;31057;48.498;32.260;2023-03-01T12:23:31;4.70;99.90
45319;DHT22;31057;48.498;32.260;2023-03-01T12:25:45;4.70;99.90
45319;DHT22;31057;48.498;32.260;2023-03-01T12:37:21;4.10;99.90
45319;DHT22;31057;48.498;32.260;2023-03-01T12:43:42;4.00;99.90
45319;DHT22;31057;48.498;32.260;2023-03-01T12:46:08;4.00;99.90
45319;DHT22;31057;48.498;32.260;2023-03-01T12:50:50;4.30;99.90
45319;DHT22;31057;48.498;32.260;2023-03-01T12:53:18;4.30;99.90
45319;DHT22;31057;48.498;32.260;2023-03-01T12:55:39;4.30;99.90
45319;DHT22;31057;48.498;32.260;2023-03-01T12:58:06;4.20;99.90
45319;DHT22;31057;48.498;32.260;2023-03-01T13:01:13;4.00;99.90
45319;DHT22;31057;48.498;32.260;2023-03-01T13:05:21;3.80;99.90
45319;DHT22;31057;48.498;32.260;2023-03-01T13:09:41;3.80;99.90
45319;DHT22;31057;48.498;32.260;2023-03-01T13:11:46;3.80;99.90
45319;DHT22;31057;48.498;32.260;2023-03-01T13:13:48;3.90;99.90
45319;DHT22;31057;48.498;32.260;2023-03-01T13:15:50;3.80;99.90
45319;DHT22;31057;48.498;32.260;2023-03-01T13:17:56;3.70;99.90
45319;DHT22;31057;48.498;32.260;2023-03-01T13:19:58;3.80;99.90
45319;DHT22;31057;48.498;32.260;2023-03-01T13:22:01;3.90;99.90
45319;DHT22;31057;48.498;32.260;2023-03-01T13:24:23;3.90;99.90
45319;DHT22;31057;48.498;32.260;2023-03-01T13:26:25;3.70;99.90
45319;DHT22;31057;48.498;32.260;2023-03-01T13:32:38;3.70;99.90
45319;DHT22;31057;48.498;32.260;2023-03-01T13:34:46;3.80;99.90
45319;DHT22;31057;48.498;32.260;2023-03-01T13:36:48;3.70;99.90
45319;DHT22;31057;48.498;32.260;2023-03-01T13:40:57;3.90;99.90
45319;DHT22;31057;48.498;32.260;2023-03-01T13:42:59;3.90;99.90
45319;DHT22;31057;48.498;32.260;2023-03-01T13:45:37;3.90;99.90
45319;DHT22;31057;48.498;32.260;2023-03-01T13:47:41;3.90;99.90
45319;DHT22;31057;48.498;32.260;2023-03-01T13:49:58;3.80;99.90
45319;DHT22;31057;48.498;32.260;2023-03-01T13:52:00;3.90;99.90
45319;DHT22;31057;48.498;32.260;2023-03-01T13:54:03;3.80;99.90
45319;DHT22;31057;48.498;32.260;2023-03-01T13:56:09;3.80;99.90
45319;DHT22;31057;48.498;32.260;2023-03-01T14:00:25;3.60;99.90
45319;DHT22;31057;48.498;32.260;2023-03-01T14:02:27;3.50;99.90
45319;DHT22;31057;48.498;32.260;2023-03-01T14:04:30;3.50;99.90
45319;DHT22;31057;48.498;32.260;2023-03-01T14:06:33;3.40;99.90
45319;DHT22;31057;48.498;32.260;2023-03-01T14:08:37;3.50;99.90
45319;DHT22;31057;48.498;32.260;2023-03-01T14:10:45;3.50;99.90
45319;DHT22;31057;48.498;32.260;2023-03-01T14:19:15;3.80;99.90
45319;DHT22;31057;48.498;32.260;2023-03-01T14:21:34;3.60;99.90
45319;DHT22;31057;48.498;32.260;2023-03-01T14:23:38;3.60;99.90
45319;DHT22;31057;48.498;32.260;2023-03-01T14:25:47;3.50;99.90
45319;DHT22;31057;48.498;32.260;2023-03-01T14:30:09;3.40;99.90
45319;DHT22;31057;48.498;32.260;2023-03-01T14:34:22;3.30;99.90
45319;DHT22;31057;48.498;32.260;2023-03-01T14:36:28;3.30;99.90
45319;DHT22;31057;48.498;32.260;2023-03-01T14:39:15;3.30;99.90
45319;DHT22;31057;48.498;32.260;2023-03-01T14:41:11;3.20;99.90
45319;DHT22;31057;48.498;32.260;2023-03-01T14:43:17;3.20;99.90
45319;DHT22;31057;48.498;32.260;2023-03-01T14:45:22;3.20;99.90
45319;DHT22;31057;48.498;32.260;2023-03-01T14:47:27;3.20;99.90
45319;DHT22;31057;48.498;32.260;2023-03-01T14:49:32;3.20;99.90
45319;DHT22;31057;48.498;32.260;2023-03-01T14:51:37;3.10;99.90
45319;DHT22;31057;48.498;32.260;2023-03-01T14:53:40;3.20;99.90
45319;DHT22;31057;48.498;32.260;2023-03-01T14:55:52;3.10;99.90
45319;DHT22;31057;48.498;32.260;2023-03-01T14:57:55;3.10;99.90
45319;DHT22;31057;48.498;32.260;2023-03-01T14:59:58;3.00;99.90
45319;DHT22;31057;48.498;32.260;2023-03-01T15:02:01;3.10;99.90
45319;DHT22;31057;48.498;32.260;2023-03-01T15:04:04;3.00;99.90
45319;DHT22;31057;48.498;32.260;2023-03-01T15:06:06;2.90;99.90
45319;DHT22;31057;48.498;32.260;2023-03-01T15:08:11;2.80;99.90
45319;DHT22;31057;48.498;32.260;2023-03-01T15:10:22;2.80;99.90
45319;DHT22;31057;48.498;32.260;2023-03-01T15:14:42;2.70;99.90
45319;DHT22;31057;48.498;32.260;2023-03-01T15:16:55;2.70;99.90
45319;DHT22;31057;48.498;32.260;2023-03-01T15:18:58;2.60;99.90
45319;DHT22;31057;48.498;32.260;2023-03-01T15:23:25;2.60;99.90
45319;DHT22;31057;48.498;32.260;2023-03-01T15:25:28;2.50;99.90
45319;DHT22;31057;48.498;32.260;2023-03-01T15:27:30;2.50;99.90